首页
METAR-TAF:

METAR-TAF

机场 :

图兹拉国际机场

图兹拉, 波斯尼亚和黑塞哥维那

纬度: 44-33N, 经度: 018-42E, 海拔: 306米

当前天气观测

该预报发布于42分钟前的09:00 UTC
风速7节,风向西,在西转西南西转西北之间变化
温度 12°C
湿度 94%
气压 1017 hPa
能見度: 8000
多云层高于1000英尺
阴天层高于2200英尺
小雨

METAR: LQTZ 010900Z 27007KT 240V300 8000 -RA BKN010 OVC022 12/11 Q1017

时间: 11:42 (09:42 UTC)

预报

该预报发布于2小时和47分钟前的06:55 UTC
预报有效从01日的 06点(UTC)到 02日的 06点(UTC)
风速7节,风向西
能见度10公里或以上
多云层高于4000英尺
短暂存在
从 01日的 06点(UTC)到 01日的 18点(UTC)
风速12节,风向北转西北
多云层高于500英尺
阴天层高于2000英尺
几率 40% :
短暂存在
从 01日的 09点(UTC)到 01日的 15点(UTC)
风速15节,风向多变
能見度: 4000
少量云层高于2700英尺, 塔状积云.
多云层高于4000英尺
阵雨
短暂存在
从 02日的 01点(UTC)到 02日的 06点(UTC)
能見度: 4000
多云层高于500英尺
阴天层高于2000英尺

TAF: LQTZ 010655Z 0106/0206 27007KT 9999 BKN040 TX20/0113Z TN09/0203Z TEMPO 0106/0118 33012KT RA BKN005 OVC020 PROB40 TEMPO 0109/0115 VRB15KT 4000 SHRA FEW027TCU BKN040 TEMPO 0201/0206 4000 RA BKN005 OVC020

超过4000个机场的气象观测和天气预报(METAR&TAF报告)。

可查询的气象台以黄色和红色小点在地图上表示。

将鼠标移到小点上方,可查看气象台名称。

然后点击查看天气观测和预报。

如需切换地图:点击带黑十字的绿色按钮放大地图;点击带横线的绿色按钮缩小地图;或者点击绿色箭头查看邻近地区的地图。


METAR-TAF: